createdAt,value
2022-12-18T00:03:56.234Z,53
2022-12-18T00:08:56.168Z,55.4
2022-12-18T00:14:19.353Z,55.8
2022-12-18T00:18:56.231Z,55.8
2022-12-18T00:23:56.155Z,58.2
2022-12-18T00:29:19.545Z,56.6
2022-12-18T00:38:57.796Z,55.8
2022-12-18T00:44:11.881Z,55.8
2022-12-18T00:48:56.012Z,51.2
2022-12-18T00:53:56.063Z,48
2022-12-18T00:59:07.457Z,45.4
2022-12-18T01:03:56.532Z,43.7
2022-12-18T01:08:56.518Z,43.5
2022-12-18T01:14:06.682Z,42.1
2022-12-18T01:18:56.849Z,39.6
2022-12-18T01:23:56.413Z,39.6
2022-12-18T01:29:12.888Z,39.6
2022-12-18T01:33:57.557Z,38.4
2022-12-18T01:38:56.019Z,38.4
2022-12-18T01:44:09.941Z,36
2022-12-18T01:48:56.025Z,36
2022-12-18T01:53:55.982Z,34.1
2022-12-18T01:59:08.018Z,33.6
2022-12-18T02:03:56.191Z,32.2
2022-12-18T02:08:56.022Z,33.6
2022-12-18T02:14:05.641Z,32.2
2022-12-18T02:18:56.137Z,32
2022-12-18T02:23:55.975Z,32.2
2022-12-18T02:29:06.733Z,32.2
2022-12-18T02:33:55.991Z,32.2
2022-12-18T02:38:55.975Z,33.4
2022-12-18T02:44:09.951Z,33.4
2022-12-18T02:48:56.052Z,33.7
2022-12-18T02:53:56.007Z,34.9
2022-12-18T02:59:06.657Z,36.4
2022-12-18T03:08:56.000Z,35.4
2022-12-18T03:14:06.813Z,36.4
2022-12-18T03:18:56.029Z,36.4
2022-12-18T03:23:56.455Z,37.5
2022-12-18T03:29:05.205Z,37.5
2022-12-18T03:33:56.020Z,37.5
2022-12-18T03:38:55.979Z,37.5
2022-12-18T03:44:01.812Z,38.5
2022-12-18T03:48:56.035Z,41.8
2022-12-18T03:53:55.990Z,39.9
2022-12-18T03:59:06.511Z,39.9
2022-12-18T04:03:56.111Z,44.2
2022-12-18T04:08:56.237Z,47
2022-12-18T04:14:16.058Z,49.4
2022-12-18T04:18:56.002Z,51.1
2022-12-18T04:23:56.009Z,58.4
2022-12-18T04:28:59.590Z,61.2
2022-12-18T04:33:55.952Z,61.2
2022-12-18T04:38:56.001Z,58.4
2022-12-18T04:44:01.413Z,58.2
2022-12-18T04:48:56.131Z,51.1
2022-12-18T04:53:55.978Z,49.1
2022-12-18T04:59:07.949Z,48.2
2022-12-18T05:03:56.045Z,48.1
2022-12-18T05:08:55.986Z,48.2
2022-12-18T05:14:06.073Z,48.1
2022-12-18T05:18:56.173Z,47.4
2022-12-18T05:23:56.016Z,46.7
2022-12-18T05:29:10.085Z,47.4
2022-12-18T05:33:55.986Z,47.4
2022-12-18T05:38:56.461Z,44.9
2022-12-18T05:44:24.192Z,44.9
2022-12-18T05:48:56.085Z,44.9
2022-12-18T05:53:56.006Z,47.8
2022-12-18T05:59:11.975Z,47.8
2022-12-18T06:03:56.272Z,46.5
2022-12-18T06:08:55.978Z,44.9
2022-12-18T06:14:08.324Z,44.9
2022-12-18T06:18:56.035Z,44.9
2022-12-18T06:23:56.015Z,43.8
2022-12-18T06:29:08.356Z,42.9
2022-12-18T06:33:56.008Z,42.9
2022-12-18T06:38:56.474Z,42.9
2022-12-18T06:44:11.989Z,42.8
2022-12-18T06:48:55.999Z,42.7
2022-12-18T06:53:55.993Z,42.4
2022-12-18T06:59:09.530Z,41.4
2022-12-18T07:03:56.019Z,41.4
2022-12-18T07:08:56.023Z,41
2022-12-18T07:14:08.164Z,40.6
2022-12-18T07:18:56.003Z,40.2
2022-12-18T07:23:56.132Z,40.2
2022-12-18T07:28:59.824Z,39.6
2022-12-18T07:33:56.293Z,37.7
2022-12-18T07:38:56.018Z,36.1
2022-12-18T07:44:07.482Z,36
2022-12-18T07:48:56.009Z,36.1
2022-12-18T07:53:56.039Z,36.1
2022-12-18T07:59:09.885Z,36.1
2022-12-18T08:03:56.041Z,36
2022-12-18T08:08:55.998Z,34.7
2022-12-18T08:14:07.399Z,33
2022-12-18T08:18:56.064Z,32.6
2022-12-18T08:23:56.038Z,32.6
2022-12-18T08:29:10.057Z,32.3
2022-12-18T08:33:56.075Z,32
2022-12-18T08:38:55.998Z,32
2022-12-18T08:44:10.374Z,32
2022-12-18T08:48:56.017Z,34.7
2022-12-18T08:53:56.037Z,34.7
2022-12-18T08:59:01.127Z,33.1
2022-12-18T09:03:56.038Z,34.6
2022-12-18T09:08:56.003Z,34.6
2022-12-18T09:14:02.036Z,33.1
2022-12-18T09:18:56.066Z,33.1
2022-12-18T09:23:56.065Z,32.7
2022-12-18T09:29:08.995Z,33.1
2022-12-18T09:33:56.019Z,32.7
2022-12-18T09:38:55.996Z,32.3
2022-12-18T09:44:12.606Z,32.7
2022-12-18T09:48:56.040Z,33.4
2022-12-18T09:53:56.035Z,34.9
2022-12-18T09:59:09.042Z,34.9
2022-12-18T10:03:56.070Z,31.1
2022-12-18T10:08:56.083Z,31.1
2022-12-18T10:14:06.656Z,32.2
2022-12-18T10:18:56.020Z,28.7
2022-12-18T10:23:56.024Z,27.4
2022-12-18T10:29:12.812Z,27.2
2022-12-18T10:33:57.067Z,27.4
2022-12-18T10:38:56.273Z,27.3
2022-12-18T10:44:11.483Z,28.1
2022-12-18T10:48:56.021Z,27.3
2022-12-18T10:53:56.132Z,27.3
2022-12-18T10:59:07.691Z,28.1
2022-12-18T11:04:01.949Z,28.1
2022-12-18T11:08:56.085Z,28.1
2022-12-18T11:14:10.916Z,28.7
2022-12-18T11:18:56.036Z,28.7
2022-12-18T11:23:56.140Z,28.7
2022-12-18T11:29:00.172Z,28.7
2022-12-18T11:34:27.262Z,27.8
2022-12-18T11:38:56.045Z,27.8
2022-12-18T11:44:13.500Z,27.8
2022-12-18T11:48:56.072Z,27.8
2022-12-18T11:53:56.041Z,27.8
2022-12-18T11:59:09.561Z,27.8
2022-12-18T12:03:56.225Z,27
2022-12-18T12:08:56.053Z,27
2022-12-18T12:14:07.975Z,27
2022-12-18T12:18:56.048Z,26.5
2022-12-18T12:23:56.053Z,26.1
2022-12-18T12:29:13.453Z,26.1
2022-12-18T12:33:56.058Z,26.1
2022-12-18T12:38:56.118Z,27.8
2022-12-18T12:44:12.881Z,26.6
2022-12-18T12:48:56.056Z,26.6
2022-12-18T12:53:56.081Z,28.8
2022-12-18T12:59:02.840Z,28.8
2022-12-18T13:03:56.071Z,28.8
2022-12-18T13:08:59.103Z,28.8
2022-12-18T13:14:35.297Z,28.8
2022-12-18T13:18:56.151Z,30.9
2022-12-18T13:23:56.087Z,30.9
2022-12-18T13:29:11.124Z,31.1
2022-12-18T13:34:24.886Z,31.1
2022-12-18T13:38:56.087Z,31.1
2022-12-18T13:44:14.752Z,31.1
2022-12-18T13:48:56.066Z,29.1
2022-12-18T13:53:56.090Z,29.1
2022-12-18T13:59:10.547Z,29.4
2022-12-18T14:03:56.116Z,29.4
2022-12-18T14:08:56.126Z,29.4
2022-12-18T14:14:09.538Z,30.1
2022-12-18T14:18:57.582Z,29.4
2022-12-18T14:23:56.095Z,30.1
2022-12-18T14:29:08.544Z,29.4
2022-12-18T14:33:56.052Z,31.3
2022-12-18T14:38:56.111Z,31.3
2022-12-18T14:44:10.743Z,33.2
2022-12-18T14:48:56.090Z,31.4
2022-12-18T14:53:56.576Z,31.4
2022-12-18T14:59:08.960Z,31.4
2022-12-18T15:03:56.132Z,33.2
2022-12-18T15:08:56.298Z,34.4
2022-12-18T15:14:06.083Z,34.4
2022-12-18T15:18:56.055Z,37.2
2022-12-18T15:23:56.079Z,38.3
2022-12-18T15:29:00.470Z,38.8
2022-12-18T15:33:56.071Z,41.2
2022-12-18T15:38:57.604Z,41.2
2022-12-18T15:44:01.664Z,39.1
2022-12-18T15:49:02.056Z,40.6
2022-12-18T15:53:56.117Z,40.9
2022-12-18T15:59:10.896Z,40.9
2022-12-18T16:03:56.319Z,40.9
2022-12-18T16:08:56.119Z,40.9
2022-12-18T16:14:08.425Z,40.9
2022-12-18T16:18:57.991Z,42.1
2022-12-18T16:33:56.615Z,151.95
2022-12-18T16:42:32.796Z,328.5
2022-12-18T16:47:43.372Z,189.55
2022-12-18T16:53:56.256Z,38.7
2022-12-18T16:58:56.174Z,41.75
2022-12-18T17:03:56.233Z,44.8
2022-12-18T17:14:02.222Z,44.95
2022-12-18T17:19:02.112Z,45.1
2022-12-18T17:24:02.209Z,51.8
2022-12-18T17:29:02.098Z,58.5
2022-12-18T17:34:02.138Z,60.5
2022-12-18T17:39:02.498Z,61
2022-12-18T17:44:02.190Z,61.2
2022-12-18T17:49:02.130Z,63.6
2022-12-18T17:54:02.215Z,63.6
2022-12-18T17:59:02.209Z,63.9
2022-12-18T18:04:02.276Z,64.1
2022-12-18T18:09:02.215Z,64.1
2022-12-18T18:14:02.146Z,64.1
2022-12-18T18:19:02.139Z,65.1
2022-12-18T18:24:02.143Z,64.1
2022-12-18T18:29:05.247Z,65.1
2022-12-18T18:34:02.112Z,65.1
2022-12-18T18:39:02.224Z,65.1
2022-12-18T18:44:02.184Z,65.1
2022-12-18T18:49:02.226Z,72.6
2022-12-18T18:54:02.355Z,178.5
2022-12-18T18:59:02.259Z,178.5
2022-12-18T19:04:02.116Z,178.5
2022-12-18T19:09:02.081Z,178.5
2022-12-18T19:14:02.182Z,116.8
2022-12-18T19:19:03.131Z,65.7
2022-12-18T19:24:02.102Z,58.7
2022-12-18T19:29:02.194Z,58.7
2022-12-18T19:34:02.125Z,58.7
2022-12-18T19:39:02.157Z,58.7
2022-12-18T19:44:08.014Z,58.7
2022-12-18T19:49:02.229Z,58.7
2022-12-18T19:54:03.238Z,57.6
2022-12-18T19:59:02.533Z,57.2
2022-12-18T20:04:03.203Z,57.2
2022-12-18T20:09:02.168Z,57.2
2022-12-18T20:14:02.177Z,56.6
2022-12-18T20:19:02.424Z,55.6
2022-12-18T20:24:02.196Z,54.2
2022-12-18T20:29:02.174Z,54.2
2022-12-18T20:34:06.029Z,53.9
2022-12-18T20:39:06.621Z,53.9
2022-12-18T20:44:02.360Z,53.8
2022-12-18T20:49:02.213Z,53.8
2022-12-18T20:54:02.194Z,53.8
2022-12-18T20:59:02.115Z,54.3
2022-12-18T21:04:02.314Z,106
2022-12-18T21:09:02.212Z,106
2022-12-18T21:14:02.124Z,106
2022-12-18T21:19:02.207Z,106
2022-12-18T21:24:02.498Z,55.7
2022-12-18T21:29:02.112Z,53.9
2022-12-18T21:34:03.295Z,52
2022-12-18T21:39:02.261Z,51.1
2022-12-18T21:44:02.159Z,49
2022-12-18T21:49:02.175Z,48.8
2022-12-18T21:54:02.351Z,49
2022-12-18T21:59:02.706Z,48.8
2022-12-18T22:04:02.192Z,47.4
2022-12-18T22:09:02.147Z,48.8
2022-12-18T22:14:02.176Z,47.4
2022-12-18T22:19:02.162Z,47.4
2022-12-18T22:24:02.402Z,49.4
2022-12-18T22:29:02.226Z,47.6
2022-12-18T22:34:02.177Z,47.6
2022-12-18T22:39:02.228Z,47.6
2022-12-18T22:44:02.275Z,47.6
2022-12-18T22:49:02.215Z,49.1
2022-12-18T22:54:03.292Z,49.1
2022-12-18T22:59:02.197Z,49.1
2022-12-18T23:04:02.196Z,49.1
2022-12-18T23:09:02.512Z,49.1
2022-12-18T23:14:02.438Z,49.1
2022-12-18T23:19:02.439Z,47
2022-12-18T23:24:02.439Z,47
2022-12-18T23:29:02.161Z,47
2022-12-18T23:34:02.175Z,47
2022-12-18T23:39:02.146Z,48.3
2022-12-18T23:44:02.178Z,49.3
2022-12-18T23:49:02.217Z,49.3
2022-12-18T23:54:02.365Z,49.8
2022-12-18T23:59:02.193Z,50.3
